sensor_id;sensor_type;location;lat;lon;timestamp;temperature;humidity
439;DHT22;206;48.782;9.252;2023-02-28T00:00:51;0.50;23.80
439;DHT22;206;48.782;9.252;2023-02-28T00:03:17;0.50;23.90
439;DHT22;206;48.782;9.252;2023-02-28T00:05:43;0.40;23.80
439;DHT22;206;48.782;9.252;2023-02-28T00:08:09;0.40;23.80
439;DHT22;206;48.782;9.252;2023-02-28T00:10:35;0.40;24.10
439;DHT22;206;48.782;9.252;2023-02-28T00:13:05;0.40;24.20
439;DHT22;206;48.782;9.252;2023-02-28T00:15:32;0.30;24.40
439;DHT22;206;48.782;9.252;2023-02-28T00:17:57;0.40;24.50
439;DHT22;206;48.782;9.252;2023-02-28T00:20:24;0.30;24.60
439;DHT22;206;48.782;9.252;2023-02-28T00:22:51;0.30;24.70
439;DHT22;206;48.782;9.252;2023-02-28T00:25:20;0.30;24.80
439;DHT22;206;48.782;9.252;2023-02-28T00:27:47;0.30;24.80
439;DHT22;206;48.782;9.252;2023-02-28T00:30:15;0.30;24.80
439;DHT22;206;48.782;9.252;2023-02-28T00:32:41;0.30;24.90
439;DHT22;206;48.782;9.252;2023-02-28T00:35:08;0.20;25.10
439;DHT22;206;48.782;9.252;2023-02-28T00:37:34;0.20;25.30
439;DHT22;206;48.782;9.252;2023-02-28T00:39:59;0.20;25.30
439;DHT22;206;48.782;9.252;2023-02-28T00:42:25;0.10;25.50
439;DHT22;206;48.782;9.252;2023-02-28T00:44:51;0.10;25.60
439;DHT22;206;48.782;9.252;2023-02-28T00:47:17;0.10;25.80
439;DHT22;206;48.782;9.252;2023-02-28T00:49:43;0.10;25.90
439;DHT22;206;48.782;9.252;2023-02-28T00:52:09;0.10;26.10
439;DHT22;206;48.782;9.252;2023-02-28T00:54:34;0.10;25.90
439;DHT22;206;48.782;9.252;2023-02-28T00:57:00;0.10;25.90
439;DHT22;206;48.782;9.252;2023-02-28T00:59:26;0.10;26.10
439;DHT22;206;48.782;9.252;2023-02-28T01:01:51;0.10;26.10
439;DHT22;206;48.782;9.252;2023-02-28T01:04:17;0.20;26.20
439;DHT22;206;48.782;9.252;2023-02-28T01:06:43;0.10;26.30
439;DHT22;206;48.782;9.252;2023-02-28T01:09:09;0.10;26.40
439;DHT22;206;48.782;9.252;2023-02-28T01:11:35;0.10;26.50
439;DHT22;206;48.782;9.252;2023-02-28T01:14:01;0.10;26.50
439;DHT22;206;48.782;9.252;2023-02-28T01:16:27;0.10;26.70
439;DHT22;206;48.782;9.252;2023-02-28T01:18:53;0.20;26.80
439;DHT22;206;48.782;9.252;2023-02-28T01:21:20;0.10;26.50
439;DHT22;206;48.782;9.252;2023-02-28T01:23:46;0.10;26.90
439;DHT22;206;48.782;9.252;2023-02-28T01:26:16;0.20;26.90
439;DHT22;206;48.782;9.252;2023-02-28T01:28:42;0.20;26.90
439;DHT22;206;48.782;9.252;2023-02-28T01:31:08;0.20;27.10
439;DHT22;206;48.782;9.252;2023-02-28T01:33:34;0.30;27.00
439;DHT22;206;48.782;9.252;2023-02-28T01:36:02;0.30;27.10
439;DHT22;206;48.782;9.252;2023-02-28T01:38:29;0.30;27.00
439;DHT22;206;48.782;9.252;2023-02-28T01:40:55;0.30;27.00
439;DHT22;206;48.782;9.252;2023-02-28T01:43:24;0.30;27.00
439;DHT22;206;48.782;9.252;2023-02-28T01:45:50;0.30;27.20
439;DHT22;206;48.782;9.252;2023-02-28T01:48:16;0.20;27.20
439;DHT22;206;48.782;9.252;2023-02-28T01:50:45;0.30;28.20
439;DHT22;206;48.782;9.252;2023-02-28T01:53:16;0.30;27.60
439;DHT22;206;48.782;9.252;2023-02-28T01:55:46;0.30;27.70
439;DHT22;206;48.782;9.252;2023-02-28T01:58:13;0.30;27.60
439;DHT22;206;48.782;9.252;2023-02-28T02:00:38;0.30;27.60
439;DHT22;206;48.782;9.252;2023-02-28T02:03:12;0.40;27.70
439;DHT22;206;48.782;9.252;2023-02-28T02:05:39;0.40;27.70
439;DHT22;206;48.782;9.252;2023-02-28T02:08:26;0.40;27.70
439;DHT22;206;48.782;9.252;2023-02-28T02:10:58;0.50;27.80
439;DHT22;206;48.782;9.252;2023-02-28T02:18:54;0.50;27.80
439;DHT22;206;48.782;9.252;2023-02-28T02:21:45;0.50;27.80
439;DHT22;206;48.782;9.252;2023-02-28T02:24:36;0.50;27.80
439;DHT22;206;48.782;9.252;2023-02-28T02:35:28;0.50;27.80
439;DHT22;206;48.782;9.252;2023-02-28T02:38:27;0.50;28.10
439;DHT22;206;48.782;9.252;2023-02-28T02:41:18;0.60;28.20
439;DHT22;206;48.782;9.252;2023-02-28T02:43:52;0.50;28.40
439;DHT22;206;48.782;9.252;2023-02-28T02:48:55;0.60;28.70
439;DHT22;206;48.782;9.252;2023-02-28T02:51:23;0.50;28.70
439;DHT22;206;48.782;9.252;2023-02-28T02:56:37;0.50;29.20
439;DHT22;206;48.782;9.252;2023-02-28T02:59:07;0.60;29.40
439;DHT22;206;48.782;9.252;2023-02-28T03:01:35;0.60;29.40
439;DHT22;206;48.782;9.252;2023-02-28T03:04:16;0.70;29.60
439;DHT22;206;48.782;9.252;2023-02-28T03:06:42;0.70;29.60
439;DHT22;206;48.782;9.252;2023-02-28T03:09:07;0.70;29.50
439;DHT22;206;48.782;9.252;2023-02-28T03:11:35;0.70;29.40
439;DHT22;206;48.782;9.252;2023-02-28T03:14:15;0.70;29.60
439;DHT22;206;48.782;9.252;2023-02-28T03:24:50;0.90;29.70
439;DHT22;206;48.782;9.252;2023-02-28T03:28:00;0.90;29.70
439;DHT22;206;48.782;9.252;2023-02-28T03:30:36;0.90;29.70
439;DHT22;206;48.782;9.252;2023-02-28T03:33:27;0.90;29.60
439;DHT22;206;48.782;9.252;2023-02-28T03:35:58;0.90;29.70
439;DHT22;206;48.782;9.252;2023-02-28T03:38:33;0.90;30.30
439;DHT22;206;48.782;9.252;2023-02-28T03:41:42;0.90;29.80
439;DHT22;206;48.782;9.252;2023-02-28T03:44:18;0.80;30.00
439;DHT22;206;48.782;9.252;2023-02-28T03:46:54;0.90;30.00
439;DHT22;206;48.782;9.252;2023-02-28T03:49:34;0.90;29.90
439;DHT22;206;48.782;9.252;2023-02-28T03:52:03;0.80;30.40
439;DHT22;206;48.782;9.252;2023-02-28T03:54:34;0.90;30.40
439;DHT22;206;48.782;9.252;2023-02-28T03:57:37;0.90;30.60
439;DHT22;206;48.782;9.252;2023-02-28T04:02:33;0.80;30.70
439;DHT22;206;48.782;9.252;2023-02-28T04:05:00;0.70;30.30
439;DHT22;206;48.782;9.252;2023-02-28T04:07:29;0.70;31.40
439;DHT22;206;48.782;9.252;2023-02-28T04:09:55;0.50;31.50
439;DHT22;206;48.782;9.252;2023-02-28T04:12:21;0.50;31.30
439;DHT22;206;48.782;9.252;2023-02-28T04:14:48;0.50;32.00
439;DHT22;206;48.782;9.252;2023-02-28T04:17:15;0.60;32.00
439;DHT22;206;48.782;9.252;2023-02-28T04:19:40;0.60;32.10
439;DHT22;206;48.782;9.252;2023-02-28T04:22:07;0.60;31.80
439;DHT22;206;48.782;9.252;2023-02-28T04:24:33;0.60;32.10
439;DHT22;206;48.782;9.252;2023-02-28T04:26:59;0.60;31.50
439;DHT22;206;48.782;9.252;2023-02-28T04:29:29;0.60;31.60
439;DHT22;206;48.782;9.252;2023-02-28T04:31:57;0.70;31.80
439;DHT22;206;48.782;9.252;2023-02-28T04:34:26;0.70;31.90
439;DHT22;206;48.782;9.252;2023-02-28T04:36:52;0.80;31.40
439;DHT22;206;48.782;9.252;2023-02-28T04:39:22;0.80;31.60
439;DHT22;206;48.782;9.252;2023-02-28T04:41:48;0.90;31.80
439;DHT22;206;48.782;9.252;2023-02-28T04:44:14;0.90;31.40
439;DHT22;206;48.782;9.252;2023-02-28T04:46:40;1.00;31.10
439;DHT22;206;48.782;9.252;2023-02-28T04:49:05;1.00;31.20
439;DHT22;206;48.782;9.252;2023-02-28T04:51:31;1.10;31.00
439;DHT22;206;48.782;9.252;2023-02-28T04:53:57;1.20;30.70
439;DHT22;206;48.782;9.252;2023-02-28T04:56:22;1.20;30.30
439;DHT22;206;48.782;9.252;2023-02-28T04:58:48;1.00;30.90
439;DHT22;206;48.782;9.252;2023-02-28T05:03:48;1.20;30.50
439;DHT22;206;48.782;9.252;2023-02-28T05:06:14;1.00;30.70
439;DHT22;206;48.782;9.252;2023-02-28T05:08:40;1.00;31.20
439;DHT22;206;48.782;9.252;2023-02-28T05:11:12;1.00;31.00
439;DHT22;206;48.782;9.252;2023-02-28T05:13:38;0.80;31.40
439;DHT22;206;48.782;9.252;2023-02-28T05:16:04;0.80;32.30
439;DHT22;206;48.782;9.252;2023-02-28T05:18:30;0.90;32.30
439;DHT22;206;48.782;9.252;2023-02-28T05:20:55;0.90;32.30
439;DHT22;206;48.782;9.252;2023-02-28T05:23:22;0.90;32.30
439;DHT22;206;48.782;9.252;2023-02-28T05:25:48;0.90;32.30
439;DHT22;206;48.782;9.252;2023-02-28T05:28:13;0.90;32.20
439;DHT22;206;48.782;9.252;2023-02-28T05:30:39;0.90;32.30
439;DHT22;206;48.782;9.252;2023-02-28T05:33:05;1.00;32.40
439;DHT22;206;48.782;9.252;2023-02-28T05:35:31;1.00;32.40
439;DHT22;206;48.782;9.252;2023-02-28T05:37:56;0.80;32.30
439;DHT22;206;48.782;9.252;2023-02-28T05:40:22;0.80;33.20
439;DHT22;206;48.782;9.252;2023-02-28T05:42:50;0.90;32.70
439;DHT22;206;48.782;9.252;2023-02-28T05:45:16;1.00;32.90
439;DHT22;206;48.782;9.252;2023-02-28T05:47:42;1.10;32.50
439;DHT22;206;48.782;9.252;2023-02-28T05:50:08;1.00;32.50
439;DHT22;206;48.782;9.252;2023-02-28T05:52:36;1.00;32.40
439;DHT22;206;48.782;9.252;2023-02-28T05:55:01;1.10;33.00
439;DHT22;206;48.782;9.252;2023-02-28T05:57:27;1.10;32.50
439;DHT22;206;48.782;9.252;2023-02-28T05:59:52;1.00;32.80
439;DHT22;206;48.782;9.252;2023-02-28T06:02:18;0.80;32.50
439;DHT22;206;48.782;9.252;2023-02-28T06:04:44;0.80;33.20
439;DHT22;206;48.782;9.252;2023-02-28T06:07:10;0.90;33.20
439;DHT22;206;48.782;9.252;2023-02-28T06:09:36;0.90;32.80
439;DHT22;206;48.782;9.252;2023-02-28T06:12:04;0.90;33.10
439;DHT22;206;48.782;9.252;2023-02-28T06:14:31;0.90;33.40
439;DHT22;206;48.782;9.252;2023-02-28T06:16:58;1.00;33.20
439;DHT22;206;48.782;9.252;2023-02-28T06:19:24;1.10;33.40
439;DHT22;206;48.782;9.252;2023-02-28T06:21:54;1.10;32.50
439;DHT22;206;48.782;9.252;2023-02-28T06:24:22;1.20;32.60
439;DHT22;206;48.782;9.252;2023-02-28T06:26:48;1.30;32.60
439;DHT22;206;48.782;9.252;2023-02-28T06:29:14;1.30;31.80
439;DHT22;206;48.782;9.252;2023-02-28T06:31:44;1.30;32.00
439;DHT22;206;48.782;9.252;2023-02-28T06:34:10;1.40;31.60
439;DHT22;206;48.782;9.252;2023-02-28T06:36:38;1.60;31.00
439;DHT22;206;48.782;9.252;2023-02-28T06:39:04;1.40;30.60
439;DHT22;206;48.782;9.252;2023-02-28T06:41:29;1.30;31.60
439;DHT22;206;48.782;9.252;2023-02-28T06:43:55;1.40;30.80
439;DHT22;206;48.782;9.252;2023-02-28T06:46:21;1.40;30.60
439;DHT22;206;48.782;9.252;2023-02-28T06:48:47;1.30;29.90
439;DHT22;206;48.782;9.252;2023-02-28T06:51:18;1.40;30.20
439;DHT22;206;48.782;9.252;2023-02-28T06:53:46;1.40;30.10
439;DHT22;206;48.782;9.252;2023-02-28T06:56:13;1.50;30.20
439;DHT22;206;48.782;9.252;2023-02-28T06:58:39;1.60;30.00
439;DHT22;206;48.782;9.252;2023-02-28T07:01:06;1.60;29.70
439;DHT22;206;48.782;9.252;2023-02-28T07:03:32;1.50;29.50
439;DHT22;206;48.782;9.252;2023-02-28T07:05:58;1.60;29.50
439;DHT22;206;48.782;9.252;2023-02-28T07:08:24;1.70;28.50
439;DHT22;206;48.782;9.252;2023-02-28T07:10:54;1.60;28.70
439;DHT22;206;48.782;9.252;2023-02-28T07:13:20;1.50;29.10
439;DHT22;206;48.782;9.252;2023-02-28T07:15:57;1.60;29.00
439;DHT22;206;48.782;9.252;2023-02-28T07:18:23;1.70;28.50
439;DHT22;206;48.782;9.252;2023-02-28T07:20:49;1.80;28.60
439;DHT22;206;48.782;9.252;2023-02-28T07:23:15;2.00;28.00
439;DHT22;206;48.782;9.252;2023-02-28T07:25:41;2.10;27.80
439;DHT22;206;48.782;9.252;2023-02-28T07:28:06;2.20;27.50
439;DHT22;206;48.782;9.252;2023-02-28T07:30:32;2.20;27.50
439;DHT22;206;48.782;9.252;2023-02-28T07:32:57;2.20;27.10
439;DHT22;206;48.782;9.252;2023-02-28T07:35:23;2.10;27.20
439;DHT22;206;48.782;9.252;2023-02-28T07:37:49;2.10;27.50
439;DHT22;206;48.782;9.252;2023-02-28T07:40:15;2.10;27.20
439;DHT22;206;48.782;9.252;2023-02-28T07:42:41;2.00;27.30
439;DHT22;206;48.782;9.252;2023-02-28T07:45:08;2.00;27.60
439;DHT22;206;48.782;9.252;2023-02-28T07:47:40;2.10;27.50
439;DHT22;206;48.782;9.252;2023-02-28T07:50:08;2.10;27.40
439;DHT22;206;48.782;9.252;2023-02-28T07:52:34;2.00;27.50
439;DHT22;206;48.782;9.252;2023-02-28T07:55:01;2.10;27.50
439;DHT22;206;48.782;9.252;2023-02-28T07:57:26;2.00;27.40
439;DHT22;206;48.782;9.252;2023-02-28T07:59:52;2.00;27.30
439;DHT22;206;48.782;9.252;2023-02-28T08:02:18;2.00;27.60
439;DHT22;206;48.782;9.252;2023-02-28T08:04:44;1.90;27.80
439;DHT22;206;48.782;9.252;2023-02-28T08:07:12;1.90;27.70
439;DHT22;206;48.782;9.252;2023-02-28T08:09:41;1.80;27.90
439;DHT22;206;48.782;9.252;2023-02-28T08:12:08;1.90;27.70
439;DHT22;206;48.782;9.252;2023-02-28T08:14:34;1.70;27.80
439;DHT22;206;48.782;9.252;2023-02-28T08:17:00;1.60;28.50
439;DHT22;206;48.782;9.252;2023-02-28T08:19:26;1.60;28.50
439;DHT22;206;48.782;9.252;2023-02-28T08:21:51;1.50;28.40
439;DHT22;206;48.782;9.252;2023-02-28T08:24:17;1.60;28.50
439;DHT22;206;48.782;9.252;2023-02-28T08:26:42;1.80;28.20
439;DHT22;206;48.782;9.252;2023-02-28T08:29:08;1.90;28.10
439;DHT22;206;48.782;9.252;2023-02-28T08:31:33;2.10;27.80
439;DHT22;206;48.782;9.252;2023-02-28T08:34:07;2.10;27.20
439;DHT22;206;48.782;9.252;2023-02-28T08:36:33;2.00;27.20
439;DHT22;206;48.782;9.252;2023-02-28T08:38:58;2.00;27.50
439;DHT22;206;48.782;9.252;2023-02-28T08:41:25;2.20;27.40
439;DHT22;206;48.782;9.252;2023-02-28T08:43:51;2.00;27.10
439;DHT22;206;48.782;9.252;2023-02-28T08:46:17;2.00;27.60
439;DHT22;206;48.782;9.252;2023-02-28T08:48:43;2.00;27.60
439;DHT22;206;48.782;9.252;2023-02-28T08:51:15;1.80;27.70
439;DHT22;206;48.782;9.252;2023-02-28T08:53:47;1.80;27.80
439;DHT22;206;48.782;9.252;2023-02-28T08:56:17;2.00;27.20
439;DHT22;206;48.782;9.252;2023-02-28T08:58:43;2.00;27.20
439;DHT22;206;48.782;9.252;2023-02-28T09:01:19;2.10;27.30
439;DHT22;206;48.782;9.252;2023-02-28T09:03:47;2.30;26.90
439;DHT22;206;48.782;9.252;2023-02-28T09:06:14;2.40;26.40
439;DHT22;206;48.782;9.252;2023-02-28T09:08:40;2.30;26.80
439;DHT22;206;48.782;9.252;2023-02-28T09:11:06;2.30;26.60
439;DHT22;206;48.782;9.252;2023-02-28T09:13:33;2.30;26.50
439;DHT22;206;48.782;9.252;2023-02-28T09:15:59;2.30;26.70
439;DHT22;206;48.782;9.252;2023-02-28T09:18:26;2.40;26.50
439;DHT22;206;48.782;9.252;2023-02-28T09:20:52;2.50;26.40
439;DHT22;206;48.782;9.252;2023-02-28T09:23:18;2.70;26.20
439;DHT22;206;48.782;9.252;2023-02-28T09:26:02;2.70;25.70
439;DHT22;206;48.782;9.252;2023-02-28T09:28:28;2.60;25.60
439;DHT22;206;48.782;9.252;2023-02-28T09:30:54;2.50;26.30
439;DHT22;206;48.782;9.252;2023-02-28T09:33:20;2.50;26.00
439;DHT22;206;48.782;9.252;2023-02-28T09:35:47;2.60;25.50
439;DHT22;206;48.782;9.252;2023-02-28T09:38:13;2.60;25.80
439;DHT22;206;48.782;9.252;2023-02-28T09:41:03;2.80;25.30
439;DHT22;206;48.782;9.252;2023-02-28T09:43:35;2.90;24.50
439;DHT22;206;48.782;9.252;2023-02-28T09:48:54;3.20;24.20
439;DHT22;206;48.782;9.252;2023-02-28T09:51:33;3.20;24.10
439;DHT22;206;48.782;9.252;2023-02-28T09:54:01;3.20;24.00
439;DHT22;206;48.782;9.252;2023-02-28T09:56:33;3.40;24.00
439;DHT22;206;48.782;9.252;2023-02-28T10:05:01;3.80;23.30
439;DHT22;206;48.782;9.252;2023-02-28T10:07:41;3.80;22.60
439;DHT22;206;48.782;9.252;2023-02-28T10:10:29;3.90;22.60
439;DHT22;206;48.782;9.252;2023-02-28T10:12:59;4.00;22.10
439;DHT22;206;48.782;9.252;2023-02-28T10:15:27;3.90;22.00
439;DHT22;206;48.782;9.252;2023-02-28T10:17:58;4.00;22.10
439;DHT22;206;48.782;9.252;2023-02-28T10:20:26;4.00;22.10
439;DHT22;206;48.782;9.252;2023-02-28T10:23:21;4.20;22.20
439;DHT22;206;48.782;9.252;2023-02-28T10:26:12;4.30;21.80
439;DHT22;206;48.782;9.252;2023-02-28T10:28:38;3.90;22.10
439;DHT22;206;48.782;9.252;2023-02-28T10:31:04;3.90;22.10
439;DHT22;206;48.782;9.252;2023-02-28T10:33:32;4.00;22.10
439;DHT22;206;48.782;9.252;2023-02-28T10:36:00;3.80;22.00
439;DHT22;206;48.782;9.252;2023-02-28T10:38:33;4.00;22.70
439;DHT22;206;48.782;9.252;2023-02-28T10:41:10;4.10;22.60
439;DHT22;206;48.782;9.252;2023-02-28T10:43:38;4.00;22.10
439;DHT22;206;48.782;9.252;2023-02-28T10:48:50;4.10;22.20
439;DHT22;206;48.782;9.252;2023-02-28T10:51:18;4.20;22.10
439;DHT22;206;48.782;9.252;2023-02-28T10:53:49;4.00;22.10
439;DHT22;206;48.782;9.252;2023-02-28T10:56:20;4.10;22.20
439;DHT22;206;48.782;9.252;2023-02-28T11:01:23;4.40;21.40
439;DHT22;206;48.782;9.252;2023-02-28T11:03:50;4.30;21.30
439;DHT22;206;48.782;9.252;2023-02-28T11:06:22;4.10;21.80
439;DHT22;206;48.782;9.252;2023-02-28T11:08:58;4.20;22.20
439;DHT22;206;48.782;9.252;2023-02-28T11:11:27;4.20;22.20
439;DHT22;206;48.782;9.252;2023-02-28T11:13:56;4.20;21.80
439;DHT22;206;48.782;9.252;2023-02-28T11:16:32;4.10;21.60
439;DHT22;206;48.782;9.252;2023-02-28T11:18:58;4.30;21.60
439;DHT22;206;48.782;9.252;2023-02-28T11:21:30;4.40;21.50
439;DHT22;206;48.782;9.252;2023-02-28T11:24:28;4.60;21.10
439;DHT22;206;48.782;9.252;2023-02-28T11:26:55;4.60;20.70
439;DHT22;206;48.782;9.252;2023-02-28T11:29:30;4.60;21.10
439;DHT22;206;48.782;9.252;2023-02-28T11:32:18;4.70;20.70
439;DHT22;206;48.782;9.252;2023-02-28T11:34:46;4.80;20.40
439;DHT22;206;48.782;9.252;2023-02-28T11:37:18;4.80;20.50
439;DHT22;206;48.782;9.252;2023-02-28T11:39:45;4.80;20.60
439;DHT22;206;48.782;9.252;2023-02-28T11:48:20;4.70;20.60
439;DHT22;206;48.782;9.252;2023-02-28T11:50:49;4.80;20.60
439;DHT22;206;48.782;9.252;2023-02-28T11:56:38;5.00;21.10
439;DHT22;206;48.782;9.252;2023-02-28T11:59:32;5.00;20.00
439;DHT22;206;48.782;9.252;2023-02-28T12:10:43;5.40;19.50
439;DHT22;206;48.782;9.252;2023-02-28T12:13:23;5.40;19.50
439;DHT22;206;48.782;9.252;2023-02-28T12:26:53;5.50;19.00
439;DHT22;206;48.782;9.252;2023-02-28T12:31:51;5.40;19.00
439;DHT22;206;48.782;9.252;2023-02-28T12:34:25;5.40;19.50
439;DHT22;206;48.782;9.252;2023-02-28T12:36:53;5.40;19.00
439;DHT22;206;48.782;9.252;2023-02-28T12:39:27;5.60;18.90
439;DHT22;206;48.782;9.252;2023-02-28T12:41:54;5.80;18.20
439;DHT22;206;48.782;9.252;2023-02-28T12:47:14;6.10;18.40
439;DHT22;206;48.782;9.252;2023-02-28T12:52:24;5.90;18.30
439;DHT22;206;48.782;9.252;2023-02-28T12:55:04;5.80;18.40
439;DHT22;206;48.782;9.252;2023-02-28T12:57:42;5.70;18.90
439;DHT22;206;48.782;9.252;2023-02-28T13:00:17;5.80;18.60
439;DHT22;206;48.782;9.252;2023-02-28T13:10:54;6.20;18.00
439;DHT22;206;48.782;9.252;2023-02-28T13:13:38;6.30;18.10
439;DHT22;206;48.782;9.252;2023-02-28T13:16:09;6.50;17.80
439;DHT22;206;48.782;9.252;2023-02-28T13:18:39;6.50;17.50
439;DHT22;206;48.782;9.252;2023-02-28T13:21:09;6.60;17.50
439;DHT22;206;48.782;9.252;2023-02-28T13:23:58;6.80;17.10
439;DHT22;206;48.782;9.252;2023-02-28T13:29:21;6.90;16.80
439;DHT22;206;48.782;9.252;2023-02-28T13:34:38;7.00;16.30
439;DHT22;206;48.782;9.252;2023-02-28T13:39:56;6.90;16.50
439;DHT22;206;48.782;9.252;2023-02-28T13:47:45;7.10;15.90
439;DHT22;206;48.782;9.252;2023-02-28T13:55:42;6.90;16.30
439;DHT22;206;48.782;9.252;2023-02-28T14:04:16;6.50;16.70
439;DHT22;206;48.782;9.252;2023-02-28T14:06:49;6.60;17.00
439;DHT22;206;48.782;9.252;2023-02-28T14:09:29;6.50;16.50
439;DHT22;206;48.782;9.252;2023-02-28T14:11:57;6.60;17.00
439;DHT22;206;48.782;9.252;2023-02-28T14:17:14;6.90;16.50
439;DHT22;206;48.782;9.252;2023-02-28T14:19:44;7.00;16.70
439;DHT22;206;48.782;9.252;2023-02-28T14:25:15;7.10;15.90
439;DHT22;206;48.782;9.252;2023-02-28T14:28:23;7.30;16.10
439;DHT22;206;48.782;9.252;2023-02-28T14:36:30;7.20;16.20
439;DHT22;206;48.782;9.252;2023-02-28T14:39:05;7.10;15.90
439;DHT22;206;48.782;9.252;2023-02-28T14:41:35;6.90;16.30
439;DHT22;206;48.782;9.252;2023-02-28T14:44:18;7.00;16.00
439;DHT22;206;48.782;9.252;2023-02-28T14:46:45;7.00;16.10
439;DHT22;206;48.782;9.252;2023-02-28T14:49:19;7.10;16.50
439;DHT22;206;48.782;9.252;2023-02-28T14:51:46;7.30;16.10
439;DHT22;206;48.782;9.252;2023-02-28T14:54:15;7.40;15.80
439;DHT22;206;48.782;9.252;2023-02-28T14:56:41;7.30;16.10
439;DHT22;206;48.782;9.252;2023-02-28T14:59:26;7.20;16.00
439;DHT22;206;48.782;9.252;2023-02-28T15:02:12;7.40;16.10
439;DHT22;206;48.782;9.252;2023-02-28T15:04:38;7.30;16.10
439;DHT22;206;48.782;9.252;2023-02-28T15:07:15;7.30;16.10
439;DHT22;206;48.782;9.252;2023-02-28T15:09:41;7.40;16.10
439;DHT22;206;48.782;9.252;2023-02-28T15:12:07;7.20;16.00
439;DHT22;206;48.782;9.252;2023-02-28T15:14:34;7.20;16.00
439;DHT22;206;48.782;9.252;2023-02-28T15:17:22;7.20;16.00
439;DHT22;206;48.782;9.252;2023-02-28T15:19:51;7.30;16.10
439;DHT22;206;48.782;9.252;2023-02-28T15:22:25;7.20;16.00
439;DHT22;206;48.782;9.252;2023-02-28T15:24:54;7.20;16.30
439;DHT22;206;48.782;9.252;2023-02-28T15:27:21;7.10;15.90
439;DHT22;206;48.782;9.252;2023-02-28T15:29:50;6.90;16.30
439;DHT22;206;48.782;9.252;2023-02-28T15:32:27;6.80;16.60
439;DHT22;206;48.782;9.252;2023-02-28T15:34:53;6.80;17.00
439;DHT22;206;48.782;9.252;2023-02-28T15:43:07;6.80;17.10
439;DHT22;206;48.782;9.252;2023-02-28T15:53:51;6.60;17.60
439;DHT22;206;48.782;9.252;2023-02-28T15:56:24;6.60;17.60
439;DHT22;206;48.782;9.252;2023-02-28T15:59:16;6.60;18.20
439;DHT22;206;48.782;9.252;2023-02-28T16:01:43;6.50;17.70
439;DHT22;206;48.782;9.252;2023-02-28T16:04:26;6.50;17.80
439;DHT22;206;48.782;9.252;2023-02-28T16:09:25;6.60;17.80
439;DHT22;206;48.782;9.252;2023-02-28T16:11:55;6.60;17.80
439;DHT22;206;48.782;9.252;2023-02-28T16:14:25;6.50;18.20
439;DHT22;206;48.782;9.252;2023-02-28T16:17:05;6.40;18.20
439;DHT22;206;48.782;9.252;2023-02-28T16:19:31;6.30;18.20
439;DHT22;206;48.782;9.252;2023-02-28T16:21:57;6.20;18.50
439;DHT22;206;48.782;9.252;2023-02-28T16:24:23;6.00;18.90
439;DHT22;206;48.782;9.252;2023-02-28T16:26:50;6.00;19.00
439;DHT22;206;48.782;9.252;2023-02-28T16:29:36;6.00;18.90
439;DHT22;206;48.782;9.252;2023-02-28T16:32:05;5.90;19.10
439;DHT22;206;48.782;9.252;2023-02-28T16:34:31;5.90;19.10
439;DHT22;206;48.782;9.252;2023-02-28T16:36:56;5.90;19.20
439;DHT22;206;48.782;9.252;2023-02-28T16:39:22;6.00;19.40
439;DHT22;206;48.782;9.252;2023-02-28T16:41:49;6.00;19.10
439;DHT22;206;48.782;9.252;2023-02-28T16:44:31;5.90;19.30
439;DHT22;206;48.782;9.252;2023-02-28T16:46:59;5.80;19.20
439;DHT22;206;48.782;9.252;2023-02-28T16:49:25;5.70;19.20
439;DHT22;206;48.782;9.252;2023-02-28T16:51:50;5.60;19.60
439;DHT22;206;48.782;9.252;2023-02-28T16:54:16;5.60;19.90
439;DHT22;206;48.782;9.252;2023-02-28T16:56:44;5.50;19.70
439;DHT22;206;48.782;9.252;2023-02-28T16:59:11;5.40;19.80
439;DHT22;206;48.782;9.252;2023-02-28T17:01:37;5.40;19.90
439;DHT22;206;48.782;9.252;2023-02-28T17:04:03;5.50;20.10
439;DHT22;206;48.782;9.252;2023-02-28T17:06:30;5.40;20.60
439;DHT22;206;48.782;9.252;2023-02-28T17:08:57;5.40;20.20
439;DHT22;206;48.782;9.252;2023-02-28T17:11:24;5.20;20.30
439;DHT22;206;48.782;9.252;2023-02-28T17:13:50;5.30;20.90
439;DHT22;206;48.782;9.252;2023-02-28T17:16:29;5.30;20.70
439;DHT22;206;48.782;9.252;2023-02-28T17:18:58;5.30;20.60
439;DHT22;206;48.782;9.252;2023-02-28T17:21:24;5.20;20.60
439;DHT22;206;48.782;9.252;2023-02-28T17:23:50;5.20;20.60
439;DHT22;206;48.782;9.252;2023-02-28T17:26:18;5.20;20.70
439;DHT22;206;48.782;9.252;2023-02-28T17:28:48;5.20;20.70
439;DHT22;206;48.782;9.252;2023-02-28T17:31:14;5.10;20.70
439;DHT22;206;48.782;9.252;2023-02-28T17:33:40;5.10;20.70
439;DHT22;206;48.782;9.252;2023-02-28T17:36:16;5.10;20.90
439;DHT22;206;48.782;9.252;2023-02-28T17:38:42;5.00;20.90
439;DHT22;206;48.782;9.252;2023-02-28T17:41:10;4.90;21.10
439;DHT22;206;48.782;9.252;2023-02-28T17:43:36;4.90;21.10
439;DHT22;206;48.782;9.252;2023-02-28T17:46:02;4.90;21.10
439;DHT22;206;48.782;9.252;2023-02-28T17:48:30;4.90;21.40
439;DHT22;206;48.782;9.252;2023-02-28T17:50:56;4.80;21.40
439;DHT22;206;48.782;9.252;2023-02-28T17:53:21;4.80;21.40
439;DHT22;206;48.782;9.252;2023-02-28T17:55:49;4.80;21.60
439;DHT22;206;48.782;9.252;2023-02-28T17:58:14;4.70;21.50
439;DHT22;206;48.782;9.252;2023-02-28T18:00:40;4.70;21.40
439;DHT22;206;48.782;9.252;2023-02-28T18:03:05;4.70;21.60
439;DHT22;206;48.782;9.252;2023-02-28T18:05:32;4.70;21.50
439;DHT22;206;48.782;9.252;2023-02-28T18:07:57;4.70;21.60
439;DHT22;206;48.782;9.252;2023-02-28T18:10:23;4.70;21.70
439;DHT22;206;48.782;9.252;2023-02-28T18:12:51;4.60;21.60
439;DHT22;206;48.782;9.252;2023-02-28T18:15:18;4.60;21.80
439;DHT22;206;48.782;9.252;2023-02-28T18:17:48;4.50;21.70
439;DHT22;206;48.782;9.252;2023-02-28T18:20:14;4.50;22.00
439;DHT22;206;48.782;9.252;2023-02-28T18:22:40;4.50;22.20
439;DHT22;206;48.782;9.252;2023-02-28T18:25:07;4.50;22.80
439;DHT22;206;48.782;9.252;2023-02-28T18:27:34;4.50;22.00
439;DHT22;206;48.782;9.252;2023-02-28T18:30:01;4.40;22.10
439;DHT22;206;48.782;9.252;2023-02-28T18:32:28;4.40;22.40
439;DHT22;206;48.782;9.252;2023-02-28T18:34:54;4.30;22.30
439;DHT22;206;48.782;9.252;2023-02-28T18:37:19;4.30;22.30
439;DHT22;206;48.782;9.252;2023-02-28T18:39:46;4.30;22.30
439;DHT22;206;48.782;9.252;2023-02-28T18:42:11;4.20;22.20
439;DHT22;206;48.782;9.252;2023-02-28T18:44:37;4.20;22.20
439;DHT22;206;48.782;9.252;2023-02-28T18:47:03;4.20;22.30
439;DHT22;206;48.782;9.252;2023-02-28T18:49:30;4.20;22.20
439;DHT22;206;48.782;9.252;2023-02-28T18:51:58;4.20;22.60
439;DHT22;206;48.782;9.252;2023-02-28T18:54:24;4.20;22.30
439;DHT22;206;48.782;9.252;2023-02-28T18:56:49;4.20;22.30
439;DHT22;206;48.782;9.252;2023-02-28T18:59:15;4.20;22.70
439;DHT22;206;48.782;9.252;2023-02-28T19:01:41;4.20;23.00
439;DHT22;206;48.782;9.252;2023-02-28T19:04:11;4.20;23.00
439;DHT22;206;48.782;9.252;2023-02-28T19:06:36;4.20;22.90
439;DHT22;206;48.782;9.252;2023-02-28T19:09:04;4.10;22.60
439;DHT22;206;48.782;9.252;2023-02-28T19:11:30;4.10;22.90
439;DHT22;206;48.782;9.252;2023-02-28T19:13:56;4.10;23.00
439;DHT22;206;48.782;9.252;2023-02-28T19:16:23;4.10;23.20
439;DHT22;206;48.782;9.252;2023-02-28T19:18:49;4.00;23.10
439;DHT22;206;48.782;9.252;2023-02-28T19:21:17;3.90;23.30
439;DHT22;206;48.782;9.252;2023-02-28T19:23:46;3.90;23.90
439;DHT22;206;48.782;9.252;2023-02-28T19:26:17;3.90;23.50
439;DHT22;206;48.782;9.252;2023-02-28T19:28:44;3.90;23.50
439;DHT22;206;48.782;9.252;2023-02-28T19:31:16;3.90;23.60